sensor_id;sensor_type;location;lat;lon;timestamp;pressure;altitude;pressure_sealevel;temperature;humidity
78407;BME280;67692;51.074;-1.790;2024-02-26T00:00:52;98972.31;;;4.93;100.00
78407;BME280;67692;51.074;-1.790;2024-02-26T00:03:20;98984.41;;;4.91;100.00
78407;BME280;67692;51.074;-1.790;2024-02-26T00:05:47;98984.53;;;4.90;100.00
78407;BME280;67692;51.074;-1.790;2024-02-26T00:08:13;99000.97;;;4.87;100.00
78407;BME280;67692;51.074;-1.790;2024-02-26T00:10:40;98999.69;;;4.82;100.00
78407;BME280;67692;51.074;-1.790;2024-02-26T00:13:08;99005.38;;;4.85;100.00
78407;BME280;67692;51.074;-1.790;2024-02-26T00:15:34;99011.56;;;4.83;100.00
78407;BME280;67692;51.074;-1.790;2024-02-26T00:18:01;99019.59;;;4.78;100.00
78407;BME280;67692;51.074;-1.790;2024-02-26T00:20:29;99024.91;;;4.75;100.00
78407;BME280;67692;51.074;-1.790;2024-02-26T00:22:56;99069.56;;;4.72;100.00
78407;BME280;67692;51.074;-1.790;2024-02-26T00:25:22;99056.72;;;4.72;100.00
78407;BME280;67692;51.074;-1.790;2024-02-26T00:27:49;99028.88;;;4.68;100.00
78407;BME280;67692;51.074;-1.790;2024-02-26T00:30:16;99051.22;;;4.66;100.00
78407;BME280;67692;51.074;-1.790;2024-02-26T00:32:42;99042.72;;;4.65;100.00
78407;BME280;67692;51.074;-1.790;2024-02-26T00:35:09;99062.31;;;4.66;100.00
78407;BME280;67692;51.074;-1.790;2024-02-26T00:37:37;99066.63;;;4.66;100.00
78407;BME280;67692;51.074;-1.790;2024-02-26T00:40:05;99066.50;;;4.67;100.00
78407;BME280;67692;51.074;-1.790;2024-02-26T00:42:34;99076.88;;;4.66;100.00
78407;BME280;67692;51.074;-1.790;2024-02-26T00:45:00;99060.66;;;4.65;100.00
78407;BME280;67692;51.074;-1.790;2024-02-26T00:47:27;99098.31;;;4.65;100.00
78407;BME280;67692;51.074;-1.790;2024-02-26T00:49:54;99082.19;;;4.63;100.00
78407;BME280;67692;51.074;-1.790;2024-02-26T00:52:20;99095.75;;;4.65;100.00
78407;BME280;67692;51.074;-1.790;2024-02-26T00:54:48;99099.22;;;4.64;100.00
78407;BME280;67692;51.074;-1.790;2024-02-26T00:57:15;99105.06;;;4.66;100.00
78407;BME280;67692;51.074;-1.790;2024-02-26T00:59:42;99109.56;;;4.62;100.00
78407;BME280;67692;51.074;-1.790;2024-02-26T01:02:08;99109.69;;;4.61;100.00
78407;BME280;67692;51.074;-1.790;2024-02-26T01:04:35;99119.75;;;4.64;100.00
78407;BME280;67692;51.074;-1.790;2024-02-26T01:07:02;99126.50;;;4.65;100.00
78407;BME280;67692;51.074;-1.790;2024-02-26T01:09:29;99141.88;;;4.65;100.00
78407;BME280;67692;51.074;-1.790;2024-02-26T01:11:57;99141.88;;;4.65;100.00
78407;BME280;67692;51.074;-1.790;2024-02-26T01:14:23;99149.69;;;4.63;100.00
78407;BME280;67692;51.074;-1.790;2024-02-26T01:16:50;99147.19;;;4.62;100.00
78407;BME280;67692;51.074;-1.790;2024-02-26T01:19:17;99158.09;;;4.65;100.00
78407;BME280;67692;51.074;-1.790;2024-02-26T01:21:43;99167.53;;;4.65;100.00
78407;BME280;67692;51.074;-1.790;2024-02-26T01:24:10;99159.72;;;4.66;100.00
78407;BME280;67692;51.074;-1.790;2024-02-26T01:26:37;99210.78;;;4.69;100.00
78407;BME280;67692;51.074;-1.790;2024-02-26T01:29:05;99167.19;;;4.69;100.00
78407;BME280;67692;51.074;-1.790;2024-02-26T01:31:31;99185.03;;;4.71;100.00
78407;BME280;67692;51.074;-1.790;2024-02-26T01:33:58;99211.38;;;4.73;100.00
78407;BME280;67692;51.074;-1.790;2024-02-26T01:36:25;99190.88;;;4.73;100.00
78407;BME280;67692;51.074;-1.790;2024-02-26T01:38:51;99196.81;;;4.73;100.00
78407;BME280;67692;51.074;-1.790;2024-02-26T01:41:18;99196.69;;;4.75;100.00
78407;BME280;67692;51.074;-1.790;2024-02-26T01:43:45;99225.63;;;4.77;100.00
78407;BME280;67692;51.074;-1.790;2024-02-26T01:46:14;99217.94;;;4.77;100.00
78407;BME280;67692;51.074;-1.790;2024-02-26T01:48:41;99235.69;;;4.80;100.00
78407;BME280;67692;51.074;-1.790;2024-02-26T01:51:08;99251.78;;;4.82;100.00
78407;BME280;67692;51.074;-1.790;2024-02-26T01:53:36;99240.50;;;4.85;100.00
78407;BME280;67692;51.074;-1.790;2024-02-26T01:56:04;99236.41;;;4.82;100.00
78407;BME280;67692;51.074;-1.790;2024-02-26T01:58:31;99268.81;;;4.83;100.00
78407;BME280;67692;51.074;-1.790;2024-02-26T02:00:58;99272.31;;;4.82;100.00
78407;BME280;67692;51.074;-1.790;2024-02-26T02:03:27;99284.19;;;4.83;100.00
78407;BME280;67692;51.074;-1.790;2024-02-26T02:05:54;99275.56;;;4.84;100.00
78407;BME280;67692;51.074;-1.790;2024-02-26T02:08:21;99293.53;;;4.84;100.00
78407;BME280;67692;51.074;-1.790;2024-02-26T02:10:49;99290.13;;;4.84;100.00
78407;BME280;67692;51.074;-1.790;2024-02-26T02:13:16;99307.16;;;4.85;100.00
78407;BME280;67692;51.074;-1.790;2024-02-26T02:15:43;99289.00;;;4.88;100.00
78407;BME280;67692;51.074;-1.790;2024-02-26T02:18:09;99292.38;;;4.88;100.00
78407;BME280;67692;51.074;-1.790;2024-02-26T02:20:38;99305.91;;;4.90;100.00
78407;BME280;67692;51.074;-1.790;2024-02-26T02:23:04;99313.72;;;4.89;100.00
78407;BME280;67692;51.074;-1.790;2024-02-26T02:25:31;99325.63;;;4.90;100.00
78407;BME280;67692;51.074;-1.790;2024-02-26T02:27:58;99323.28;;;4.87;100.00
78407;BME280;67692;51.074;-1.790;2024-02-26T02:30:26;99333.41;;;4.88;100.00
78407;BME280;67692;51.074;-1.790;2024-02-26T02:32:55;99336.50;;;4.93;100.00
78407;BME280;67692;51.074;-1.790;2024-02-26T02:35:21;99330.66;;;4.91;100.00
78407;BME280;67692;51.074;-1.790;2024-02-26T02:37:51;99346.66;;;4.95;100.00
78407;BME280;67692;51.074;-1.790;2024-02-26T02:40:18;99336.31;;;4.96;100.00
78407;BME280;67692;51.074;-1.790;2024-02-26T02:42:45;99367.78;;;4.98;100.00
78407;BME280;67692;51.074;-1.790;2024-02-26T02:45:11;99360.09;;;4.98;100.00
78407;BME280;67692;51.074;-1.790;2024-02-26T02:47:38;99356.59;;;4.99;100.00
78407;BME280;67692;51.074;-1.790;2024-02-26T02:50:06;99363.59;;;4.97;100.00
78407;BME280;67692;51.074;-1.790;2024-02-26T02:52:32;99370.56;;;4.95;100.00
78407;BME280;67692;51.074;-1.790;2024-02-26T02:55:01;99381.66;;;4.96;100.00
78407;BME280;67692;51.074;-1.790;2024-02-26T02:57:28;99390.88;;;4.98;100.00
78407;BME280;67692;51.074;-1.790;2024-02-26T02:59:55;99388.41;;;4.97;100.00
78407;BME280;67692;51.074;-1.790;2024-02-26T03:02:21;99403.00;;;4.96;100.00
78407;BME280;67692;51.074;-1.790;2024-02-26T03:04:50;99398.69;;;4.97;100.00
78407;BME280;67692;51.074;-1.790;2024-02-26T03:07:17;99405.34;;;4.99;100.00
78407;BME280;67692;51.074;-1.790;2024-02-26T03:09:43;99430.06;;;5.00;100.00
78407;BME280;67692;51.074;-1.790;2024-02-26T03:12:11;99414.88;;;4.97;100.00
78407;BME280;67692;51.074;-1.790;2024-02-26T03:14:38;99419.31;;;4.95;100.00
78407;BME280;67692;51.074;-1.790;2024-02-26T03:17:05;99443.09;;;4.97;100.00
78407;BME280;67692;51.074;-1.790;2024-02-26T03:19:31;99437.47;;;4.92;100.00
78407;BME280;67692;51.074;-1.790;2024-02-26T03:21:58;99438.19;;;4.94;100.00
78407;BME280;67692;51.074;-1.790;2024-02-26T03:24:25;99424.66;;;4.92;99.80
78407;BME280;67692;51.074;-1.790;2024-02-26T03:26:51;99447.53;;;4.95;99.89
78407;BME280;67692;51.074;-1.790;2024-02-26T03:29:19;99471.31;;;4.97;99.37
78407;BME280;67692;51.074;-1.790;2024-02-26T03:31:46;99465.47;;;4.95;99.52
78407;BME280;67692;51.074;-1.790;2024-02-26T03:34:13;99479.13;;;4.96;99.61
78407;BME280;67692;51.074;-1.790;2024-02-26T03:36:40;99460.34;;;4.95;98.90
78407;BME280;67692;51.074;-1.790;2024-02-26T03:39:06;99477.28;;;4.98;99.32
78407;BME280;67692;51.074;-1.790;2024-02-26T03:41:34;99477.88;;;5.01;98.67
78407;BME280;67692;51.074;-1.790;2024-02-26T03:44:01;99495.13;;;4.99;99.26
78407;BME280;67692;51.074;-1.790;2024-02-26T03:46:29;99503.53;;;5.01;97.57
78407;BME280;67692;51.074;-1.790;2024-02-26T03:48:56;99502.63;;;5.02;97.70
78407;BME280;67692;51.074;-1.790;2024-02-26T03:51:22;99513.81;;;5.01;97.55
78407;BME280;67692;51.074;-1.790;2024-02-26T03:53:49;99503.31;;;4.92;98.63
78407;BME280;67692;51.074;-1.790;2024-02-26T03:56:16;99520.56;;;5.02;97.35
78407;BME280;67692;51.074;-1.790;2024-02-26T03:58:42;99532.69;;;5.00;97.19
78407;BME280;67692;51.074;-1.790;2024-02-26T04:01:09;99533.19;;;5.05;98.25
78407;BME280;67692;51.074;-1.790;2024-02-26T04:03:37;99553.66;;;5.07;97.03
78407;BME280;67692;51.074;-1.790;2024-02-26T04:06:04;99558.69;;;5.08;97.70
78407;BME280;67692;51.074;-1.790;2024-02-26T04:08:31;99550.34;;;5.05;96.83
78407;BME280;67692;51.074;-1.790;2024-02-26T04:10:57;99562.34;;;5.04;97.62
78407;BME280;67692;51.074;-1.790;2024-02-26T04:13:24;99606.88;;;5.03;98.25
78407;BME280;67692;51.074;-1.790;2024-02-26T04:15:51;99578.47;;;5.06;98.13
78407;BME280;67692;51.074;-1.790;2024-02-26T04:18:18;99577.84;;;5.03;97.89
78407;BME280;67692;51.074;-1.790;2024-02-26T04:20:46;99577.22;;;4.99;98.25
78407;BME280;67692;51.074;-1.790;2024-02-26T04:23:12;99586.44;;;5.02;98.37
78407;BME280;67692;51.074;-1.790;2024-02-26T04:25:39;99591.38;;;5.05;98.52
78407;BME280;67692;51.074;-1.790;2024-02-26T04:28:06;99588.00;;;5.04;97.94
78407;BME280;67692;51.074;-1.790;2024-02-26T04:30:32;99605.94;;;5.04;98.15
78407;BME280;67692;51.074;-1.790;2024-02-26T04:32:59;99618.06;;;5.02;97.15
78407;BME280;67692;51.074;-1.790;2024-02-26T04:35:26;99631.81;;;5.01;97.54
78407;BME280;67692;51.074;-1.790;2024-02-26T04:37:54;99625.03;;;5.00;96.55
78407;BME280;67692;51.074;-1.790;2024-02-26T04:40:20;99630.25;;;4.99;98.02
78407;BME280;67692;51.074;-1.790;2024-02-26T04:42:47;99633.66;;;4.99;97.45
78407;BME280;67692;51.074;-1.790;2024-02-26T04:45:14;99635.28;;;5.00;98.00
78407;BME280;67692;51.074;-1.790;2024-02-26T04:47:40;99660.03;;;5.01;96.99
78407;BME280;67692;51.074;-1.790;2024-02-26T04:50:08;99657.84;;;4.95;97.13
78407;BME280;67692;51.074;-1.790;2024-02-26T04:52:34;99668.13;;;4.95;96.59
78407;BME280;67692;51.074;-1.790;2024-02-26T04:55:03;99666.28;;;4.97;96.82
78407;BME280;67692;51.074;-1.790;2024-02-26T04:57:30;99686.06;;;4.95;96.72
78407;BME280;67692;51.074;-1.790;2024-02-26T04:59:57;99692.22;;;4.93;96.77
78407;BME280;67692;51.074;-1.790;2024-02-26T05:02:23;99698.16;;;4.93;96.37
78407;BME280;67692;51.074;-1.790;2024-02-26T05:04:50;99703.19;;;4.95;96.86
78407;BME280;67692;51.074;-1.790;2024-02-26T05:07:16;99697.41;;;4.91;95.50
78407;BME280;67692;51.074;-1.790;2024-02-26T05:09:44;99714.47;;;4.92;94.51
78407;BME280;67692;51.074;-1.790;2024-02-26T05:12:12;99749.72;;;4.89;95.09
78407;BME280;67692;51.074;-1.790;2024-02-26T05:14:39;99730.22;;;4.86;95.48
78407;BME280;67692;51.074;-1.790;2024-02-26T05:17:06;99726.75;;;4.87;95.13
78407;BME280;67692;51.074;-1.790;2024-02-26T05:19:32;99740.50;;;4.86;93.80
78407;BME280;67692;51.074;-1.790;2024-02-26T05:21:59;99754.22;;;4.85;93.54
78407;BME280;67692;51.074;-1.790;2024-02-26T05:24:26;99760.38;;;4.83;93.65
78407;BME280;67692;51.074;-1.790;2024-02-26T05:26:53;99762.94;;;4.83;92.22
78407;BME280;67692;51.074;-1.790;2024-02-26T05:29:22;99760.28;;;4.84;91.59
78407;BME280;67692;51.074;-1.790;2024-02-26T05:31:48;99772.38;;;4.82;91.39
78407;BME280;67692;51.074;-1.790;2024-02-26T05:34:15;99766.50;;;4.80;92.13
78407;BME280;67692;51.074;-1.790;2024-02-26T05:36:42;99779.34;;;4.80;90.23
78407;BME280;67692;51.074;-1.790;2024-02-26T05:39:08;99792.16;;;4.80;91.22
78407;BME280;67692;51.074;-1.790;2024-02-26T05:41:37;99802.75;;;4.74;90.81
78407;BME280;67692;51.074;-1.790;2024-02-26T05:44:03;99776.94;;;4.77;90.58
78407;BME280;67692;51.074;-1.790;2024-02-26T05:46:32;99814.50;;;4.78;89.67
78407;BME280;67692;51.074;-1.790;2024-02-26T05:48:58;99808.56;;;4.77;89.99
78407;BME280;67692;51.074;-1.790;2024-02-26T05:51:25;99827.16;;;4.81;89.09
78407;BME280;67692;51.074;-1.790;2024-02-26T05:53:52;99838.22;;;4.82;90.89
78407;BME280;67692;51.074;-1.790;2024-02-26T05:56:20;99837.31;;;4.83;90.39
78407;BME280;67692;51.074;-1.790;2024-02-26T05:58:47;99858.09;;;4.78;89.99
78407;BME280;67692;51.074;-1.790;2024-02-26T06:01:15;99850.56;;;4.75;89.80
78407;BME280;67692;51.074;-1.790;2024-02-26T06:03:44;99870.25;;;4.74;89.71
78407;BME280;67692;51.074;-1.790;2024-02-26T06:06:11;99863.50;;;4.73;90.19
78407;BME280;67692;51.074;-1.790;2024-02-26T06:08:38;99870.34;;;4.73;90.17
78407;BME280;67692;51.074;-1.790;2024-02-26T06:11:05;99878.06;;;4.73;90.21
78407;BME280;67692;51.074;-1.790;2024-02-26T06:13:33;99891.78;;;4.72;90.08
78407;BME280;67692;51.074;-1.790;2024-02-26T06:16:00;99888.03;;;4.63;89.29
78407;BME280;67692;51.074;-1.790;2024-02-26T06:18:26;99922.56;;;4.72;89.41
78407;BME280;67692;51.074;-1.790;2024-02-26T06:20:54;99909.00;;;4.70;89.86
78407;BME280;67692;51.074;-1.790;2024-02-26T06:23:21;99913.41;;;4.68;88.89
78407;BME280;67692;51.074;-1.790;2024-02-26T06:25:48;99932.81;;;4.72;89.16
78407;BME280;67692;51.074;-1.790;2024-02-26T06:28:14;99937.22;;;4.70;88.86
78407;BME280;67692;51.074;-1.790;2024-02-26T06:30:41;99933.81;;;4.69;88.96
78407;BME280;67692;51.074;-1.790;2024-02-26T06:33:07;99954.34;;;4.69;88.64
78407;BME280;67692;51.074;-1.790;2024-02-26T06:35:34;99966.06;;;4.73;89.13
78407;BME280;67692;51.074;-1.790;2024-02-26T06:38:02;99971.19;;;4.73;87.92
78407;BME280;67692;51.074;-1.790;2024-02-26T06:40:29;99965.41;;;4.70;88.89
78407;BME280;67692;51.074;-1.790;2024-02-26T06:42:56;99972.19;;;4.71;89.51
78407;BME280;67692;51.074;-1.790;2024-02-26T06:45:23;99998.66;;;4.71;89.01
78407;BME280;67692;51.074;-1.790;2024-02-26T06:47:49;100007.91;;;4.74;88.93
78407;BME280;67692;51.074;-1.790;2024-02-26T06:50:16;99990.69;;;4.76;89.81
78407;BME280;67692;51.074;-1.790;2024-02-26T06:52:44;100007.75;;;4.77;89.20
78407;BME280;67692;51.074;-1.790;2024-02-26T06:55:12;100005.16;;;4.77;88.86
78407;BME280;67692;51.074;-1.790;2024-02-26T06:57:39;100006.84;;;4.78;87.60
78407;BME280;67692;51.074;-1.790;2024-02-26T07:00:06;100036.72;;;4.79;88.46
78407;BME280;67692;51.074;-1.790;2024-02-26T07:02:33;100051.28;;;4.78;87.47
78407;BME280;67692;51.074;-1.790;2024-02-26T07:05:00;100030.00;;;4.76;86.54
78407;BME280;67692;51.074;-1.790;2024-02-26T07:07:26;100028.25;;;4.77;87.48
78407;BME280;67692;51.074;-1.790;2024-02-26T07:09:55;100045.25;;;4.80;87.74
78407;BME280;67692;51.074;-1.790;2024-02-26T07:12:23;100052.94;;;4.80;87.92
78407;BME280;67692;51.074;-1.790;2024-02-26T07:14:50;100049.28;;;4.84;87.63
78407;BME280;67692;51.074;-1.790;2024-02-26T07:17:17;100067.97;;;4.86;87.20
78407;BME280;67692;51.074;-1.790;2024-02-26T07:19:44;100068.06;;;4.84;87.19
78407;BME280;67692;51.074;-1.790;2024-02-26T07:22:11;100080.16;;;4.82;86.71
78407;BME280;67692;51.074;-1.790;2024-02-26T07:24:39;100084.19;;;4.86;85.72
78407;BME280;67692;51.074;-1.790;2024-02-26T07:27:05;100094.63;;;4.83;86.07
78407;BME280;67692;51.074;-1.790;2024-02-26T07:29:33;100101.41;;;4.84;86.21
78407;BME280;67692;51.074;-1.790;2024-02-26T07:32:00;100111.47;;;4.87;85.98
78407;BME280;67692;51.074;-1.790;2024-02-26T07:34:27;100105.53;;;4.87;86.30
78407;BME280;67692;51.074;-1.790;2024-02-26T07:36:54;100117.44;;;4.88;86.56
78407;BME280;67692;51.074;-1.790;2024-02-26T07:39:21;100113.97;;;4.89;86.80
78407;BME280;67692;51.074;-1.790;2024-02-26T07:41:48;100120.75;;;4.90;86.93
78407;BME280;67692;51.074;-1.790;2024-02-26T07:44:17;100136.81;;;4.93;86.64
78407;BME280;67692;51.074;-1.790;2024-02-26T07:46:45;100128.34;;;4.91;86.66
78407;BME280;67692;51.074;-1.790;2024-02-26T07:49:11;100164.13;;;4.94;86.32
78407;BME280;67692;51.074;-1.790;2024-02-26T07:51:38;100152.03;;;4.96;86.54
78407;BME280;67692;51.074;-1.790;2024-02-26T07:54:05;100142.44;;;5.00;87.93
78407;BME280;67692;51.074;-1.790;2024-02-26T07:56:31;100155.00;;;5.04;87.95
78407;BME280;67692;51.074;-1.790;2024-02-26T07:58:58;100167.00;;;5.04;86.66
78407;BME280;67692;51.074;-1.790;2024-02-26T08:01:25;100156.66;;;5.05;87.29
78407;BME280;67692;51.074;-1.790;2024-02-26T08:03:53;100161.78;;;5.05;88.96
78407;BME280;67692;51.074;-1.790;2024-02-26T08:06:20;100189.28;;;5.03;89.78
78407;BME280;67692;51.074;-1.790;2024-02-26T08:08:47;100179.00;;;5.03;92.04
78407;BME280;67692;51.074;-1.790;2024-02-26T08:11:14;100186.88;;;5.00;93.54
78407;BME280;67692;51.074;-1.790;2024-02-26T08:13:41;100182.09;;;4.94;94.23
78407;BME280;67692;51.074;-1.790;2024-02-26T08:16:08;100183.00;;;4.93;95.53
78407;BME280;67692;51.074;-1.790;2024-02-26T08:18:34;100193.41;;;4.90;97.61
78407;BME280;67692;51.074;-1.790;2024-02-26T08:21:03;100198.94;;;4.83;98.85
78407;BME280;67692;51.074;-1.790;2024-02-26T08:23:30;100209.22;;;4.83;99.99
78407;BME280;67692;51.074;-1.790;2024-02-26T08:25:57;100217.16;;;4.78;100.00
78407;BME280;67692;51.074;-1.790;2024-02-26T08:28:23;100215.47;;;4.77;100.00
78407;BME280;67692;51.074;-1.790;2024-02-26T08:30:50;100221.38;;;4.79;100.00
78407;BME280;67692;51.074;-1.790;2024-02-26T08:33:17;100228.16;;;4.80;100.00
78407;BME280;67692;51.074;-1.790;2024-02-26T08:35:43;100223.84;;;4.81;100.00
78407;BME280;67692;51.074;-1.790;2024-02-26T08:38:11;100231.63;;;4.79;100.00
78407;BME280;67692;51.074;-1.790;2024-02-26T08:40:38;100236.44;;;4.85;100.00
78407;BME280;67692;51.074;-1.790;2024-02-26T08:43:05;100231.13;;;4.88;99.82
78407;BME280;67692;51.074;-1.790;2024-02-26T08:45:33;100240.47;;;4.89;97.00
78407;BME280;67692;51.074;-1.790;2024-02-26T08:48:00;100253.19;;;4.92;95.26
78407;BME280;67692;51.074;-1.790;2024-02-26T08:50:27;100300.84;;;4.96;92.94
78407;BME280;67692;51.074;-1.790;2024-02-26T08:52:53;100259.19;;;4.91;93.91
78407;BME280;67692;51.074;-1.790;2024-02-26T08:55:22;100267.56;;;4.95;93.65
78407;BME280;67692;51.074;-1.790;2024-02-26T08:57:48;100269.13;;;4.97;93.87
78407;BME280;67692;51.074;-1.790;2024-02-26T09:00:16;100274.19;;;4.99;93.64
78407;BME280;67692;51.074;-1.790;2024-02-26T09:02:45;100281.63;;;5.03;92.51
78407;BME280;67692;51.074;-1.790;2024-02-26T09:05:12;100295.00;;;5.10;91.16
78407;BME280;67692;51.074;-1.790;2024-02-26T09:07:39;100284.94;;;5.05;90.85
78407;BME280;67692;51.074;-1.790;2024-02-26T09:10:06;100294.91;;;5.12;90.88
78407;BME280;67692;51.074;-1.790;2024-02-26T09:12:37;100305.91;;;5.14;91.02
78407;BME280;67692;51.074;-1.790;2024-02-26T09:15:06;100304.00;;;5.17;91.49
78407;BME280;67692;51.074;-1.790;2024-02-26T09:17:33;100308.47;;;5.14;91.22
78407;BME280;67692;51.074;-1.790;2024-02-26T09:20:00;100321.22;;;5.15;90.22
78407;BME280;67692;51.074;-1.790;2024-02-26T09:22:27;100333.06;;;5.18;90.72
78407;BME280;67692;51.074;-1.790;2024-02-26T09:24:54;100345.31;;;5.13;90.58
78407;BME280;67692;51.074;-1.790;2024-02-26T09:27:20;100331.56;;;5.14;90.01
78407;BME280;67692;51.074;-1.790;2024-02-26T09:29:50;100333.81;;;5.20;90.63
78407;BME280;67692;51.074;-1.790;2024-02-26T09:32:17;100340.75;;;5.18;89.47
78407;BME280;67692;51.074;-1.790;2024-02-26T09:34:43;100341.47;;;5.21;90.33
78407;BME280;67692;51.074;-1.790;2024-02-26T09:37:10;100346.25;;;5.27;89.62
78407;BME280;67692;51.074;-1.790;2024-02-26T09:39:38;100361.19;;;5.36;89.04
78407;BME280;67692;51.074;-1.790;2024-02-26T09:42:05;100365.72;;;5.31;87.92
78407;BME280;67692;51.074;-1.790;2024-02-26T09:44:36;100363.66;;;5.38;88.63
78407;BME280;67692;51.074;-1.790;2024-02-26T09:47:08;100376.50;;;5.38;88.37
78407;BME280;67692;51.074;-1.790;2024-02-26T09:49:36;100367.72;;;5.42;88.54
78407;BME280;67692;51.074;-1.790;2024-02-26T09:52:04;100383.88;;;5.44;88.70
78407;BME280;67692;51.074;-1.790;2024-02-26T09:54:31;100392.94;;;5.51;87.97
78407;BME280;67692;51.074;-1.790;2024-02-26T09:57:00;100382.91;;;5.62;88.35
78407;BME280;67692;51.074;-1.790;2024-02-26T09:59:29;100407.53;;;5.66;87.65
78407;BME280;67692;51.074;-1.790;2024-02-26T10:01:57;100408.50;;;5.64;87.70
78407;BME280;67692;51.074;-1.790;2024-02-26T10:04:27;100412.06;;;5.61;87.95
78407;BME280;67692;51.074;-1.790;2024-02-26T10:06:54;100430.66;;;5.66;86.89
78407;BME280;67692;51.074;-1.790;2024-02-26T10:09:21;100415.97;;;5.68;87.73
78407;BME280;67692;51.074;-1.790;2024-02-26T10:11:47;100439.41;;;5.62;86.54
78407;BME280;67692;51.074;-1.790;2024-02-26T10:14:16;100430.72;;;5.65;87.04
78407;BME280;67692;51.074;-1.790;2024-02-26T10:16:42;100434.25;;;5.62;85.24
78407;BME280;67692;51.074;-1.790;2024-02-26T10:19:26;100423.69;;;5.68;84.85
78407;BME280;67692;51.074;-1.790;2024-02-26T10:21:56;100426.50;;;5.80;85.97
78407;BME280;67692;51.074;-1.790;2024-02-26T10:24:23;100434.63;;;5.88;85.47
78407;BME280;67692;51.074;-1.790;2024-02-26T10:26:51;100454.06;;;5.93;84.79
78407;BME280;67692;51.074;-1.790;2024-02-26T10:29:18;100453.81;;;5.98;84.63
78407;BME280;67692;51.074;-1.790;2024-02-26T10:31:45;100461.03;;;6.07;85.14
78407;BME280;67692;51.074;-1.790;2024-02-26T10:34:12;100458.78;;;6.01;84.06
78407;BME280;67692;51.074;-1.790;2024-02-26T10:36:40;100481.44;;;6.10;84.74
78407;BME280;67692;51.074;-1.790;2024-02-26T10:39:08;100523.47;;;6.09;82.18
78407;BME280;67692;51.074;-1.790;2024-02-26T10:41:34;100497.00;;;6.07;82.58
78407;BME280;67692;51.074;-1.790;2024-02-26T10:44:01;100495.53;;;6.19;82.70
78407;BME280;67692;51.074;-1.790;2024-02-26T10:46:28;100495.88;;;6.29;82.94
78407;BME280;67692;51.074;-1.790;2024-02-26T10:48:55;100501.19;;;6.25;82.92
78407;BME280;67692;51.074;-1.790;2024-02-26T10:51:26;100501.19;;;6.25;83.61
78407;BME280;67692;51.074;-1.790;2024-02-26T10:53:56;100509.94;;;6.21;82.02
78407;BME280;67692;51.074;-1.790;2024-02-26T10:56:24;100499.00;;;6.18;82.14
78407;BME280;67692;51.074;-1.790;2024-02-26T10:58:53;100516.34;;;6.14;80.76
78407;BME280;67692;51.074;-1.790;2024-02-26T11:01:20;100522.41;;;6.29;80.79
78407;BME280;67692;51.074;-1.790;2024-02-26T11:03:50;100517.00;;;6.34;80.18
78407;BME280;67692;51.074;-1.790;2024-02-26T11:06:17;100536.84;;;6.47;80.70
78407;BME280;67692;51.074;-1.790;2024-02-26T11:08:44;100548.38;;;6.56;79.64
78407;BME280;67692;51.074;-1.790;2024-02-26T11:11:15;100560.97;;;6.45;77.48
78407;BME280;67692;51.074;-1.790;2024-02-26T11:13:44;100562.56;;;6.47;77.98
78407;BME280;67692;51.074;-1.790;2024-02-26T11:16:15;100547.81;;;6.51;77.78
78407;BME280;67692;51.074;-1.790;2024-02-26T11:18:43;100545.97;;;6.53;77.62
78407;BME280;67692;51.074;-1.790;2024-02-26T11:21:13;100559.16;;;6.47;77.07
78407;BME280;67692;51.074;-1.790;2024-02-26T11:23:41;100562.91;;;6.57;77.66
78407;BME280;67692;51.074;-1.790;2024-02-26T11:26:10;100564.38;;;6.61;79.26
78407;BME280;67692;51.074;-1.790;2024-02-26T11:28:39;100588.69;;;6.71;78.80
78407;BME280;67692;51.074;-1.790;2024-02-26T11:31:07;100577.97;;;6.79;76.11
78407;BME280;67692;51.074;-1.790;2024-02-26T11:33:34;100588.59;;;6.89;77.19
78407;BME280;67692;51.074;-1.790;2024-02-26T11:36:02;100599.25;;;6.82;75.93
78407;BME280;67692;51.074;-1.790;2024-02-26T11:38:29;100589.09;;;6.79;78.11
78407;BME280;67692;51.074;-1.790;2024-02-26T11:40:56;100610.19;;;6.70;75.11
78407;BME280;67692;51.074;-1.790;2024-02-26T11:43:50;100588.38;;;6.62;74.67
78407;BME280;67692;51.074;-1.790;2024-02-26T11:46:28;100601.00;;;6.66;74.32
78407;BME280;67692;51.074;-1.790;2024-02-26T11:48:59;100603.06;;;6.60;72.57
78407;BME280;67692;51.074;-1.790;2024-02-26T11:51:28;100616.00;;;6.58;71.86
78407;BME280;67692;51.074;-1.790;2024-02-26T11:53:54;100591.59;;;6.65;71.15
78407;BME280;67692;51.074;-1.790;2024-02-26T11:56:24;100611.44;;;6.79;72.10
78407;BME280;67692;51.074;-1.790;2024-02-26T11:58:59;100610.53;;;6.96;72.53
78407;BME280;67692;51.074;-1.790;2024-02-26T12:01:45;100609.69;;;7.11;70.42
78407;BME280;67692;51.074;-1.790;2024-02-26T12:04:16;100619.44;;;7.20;67.68
78407;BME280;67692;51.074;-1.790;2024-02-26T12:06:46;100605.78;;;7.34;68.18
78407;BME280;67692;51.074;-1.790;2024-02-26T12:09:16;100628.47;;;7.43;67.03
78407;BME280;67692;51.074;-1.790;2024-02-26T12:11:56;100629.03;;;7.48;67.04
78407;BME280;67692;51.074;-1.790;2024-02-26T12:14:26;100618.28;;;7.56;66.96
78407;BME280;67692;51.074;-1.790;2024-02-26T12:16:55;100634.94;;;7.64;67.75
78407;BME280;67692;51.074;-1.790;2024-02-26T12:19:23;100627.72;;;7.71;69.88
78407;BME280;67692;51.074;-1.790;2024-02-26T12:21:52;100635.63;;;7.68;70.69
78407;BME280;67692;51.074;-1.790;2024-02-26T12:24:19;100628.31;;;7.60;71.06
78407;BME280;67692;51.074;-1.790;2024-02-26T12:26:46;100654.38;;;7.56;71.03
78407;BME280;67692;51.074;-1.790;2024-02-26T12:29:13;100637.81;;;7.60;69.56
78407;BME280;67692;51.074;-1.790;2024-02-26T12:31:43;100674.53;;;7.63;69.25
78407;BME280;67692;51.074;-1.790;2024-02-26T12:34:10;100669.81;;;7.56;69.22
78407;BME280;67692;51.074;-1.790;2024-02-26T12:36:37;100658.78;;;7.54;68.60
78407;BME280;67692;51.074;-1.790;2024-02-26T12:39:05;100663.94;;;7.54;68.21
78407;BME280;67692;51.074;-1.790;2024-02-26T12:41:32;100688.44;;;7.45;68.24
78407;BME280;67692;51.074;-1.790;2024-02-26T12:43:59;100679.72;;;7.47;67.47
78407;BME280;67692;51.074;-1.790;2024-02-26T12:46:26;100690.38;;;7.41;67.05
78407;BME280;67692;51.074;-1.790;2024-02-26T12:48:56;100676.97;;;7.51;69.01
78407;BME280;67692;51.074;-1.790;2024-02-26T12:51:24;100685.56;;;7.65;69.70
78407;BME280;67692;51.074;-1.790;2024-02-26T12:53:52;100691.78;;;7.77;70.59